sensor_id;sensor_type;location;lat;lon;timestamp;pressure;altitude;pressure_sealevel;temperature;humidity
47054;BME280;32811;52.382;5.270;2023-04-08T00:01:32;102390.94;;;6.21;100.00
47054;BME280;32811;52.382;5.270;2023-04-08T00:03:59;102396.38;;;6.28;100.00
47054;BME280;32811;52.382;5.270;2023-04-08T00:06:26;102387.56;;;6.22;100.00
47054;BME280;32811;52.382;5.270;2023-04-08T00:08:53;102391.09;;;6.24;100.00
47054;BME280;32811;52.382;5.270;2023-04-08T00:11:19;102387.22;;;6.15;100.00
47054;BME280;32811;52.382;5.270;2023-04-08T00:13:46;102363.69;;;5.88;100.00
47054;BME280;32811;52.382;5.270;2023-04-08T00:16:13;102389.88;;;5.98;100.00
47054;BME280;32811;52.382;5.270;2023-04-08T00:18:39;102389.44;;;5.91;100.00
47054;BME280;32811;52.382;5.270;2023-04-08T00:21:06;102389.88;;;5.82;100.00
47054;BME280;32811;52.382;5.270;2023-04-08T00:23:33;102393.81;;;5.75;100.00
47054;BME280;32811;52.382;5.270;2023-04-08T00:26:00;102392.81;;;5.72;100.00
47054;BME280;32811;52.382;5.270;2023-04-08T00:28:27;102393.88;;;5.59;100.00
47054;BME280;32811;52.382;5.270;2023-04-08T00:30:53;102390.00;;;5.49;100.00
47054;BME280;32811;52.382;5.270;2023-04-08T00:33:20;102395.91;;;5.48;100.00
47054;BME280;32811;52.382;5.270;2023-04-08T00:35:47;102398.22;;;5.44;100.00
47054;BME280;32811;52.382;5.270;2023-04-08T00:38:13;102377.06;;;5.30;100.00
47054;BME280;32811;52.382;5.270;2023-04-08T00:40:40;102402.00;;;5.34;100.00
47054;BME280;32811;52.382;5.270;2023-04-08T00:43:07;102395.53;;;5.24;100.00
47054;BME280;32811;52.382;5.270;2023-04-08T00:45:34;102408.50;;;5.27;100.00
47054;BME280;32811;52.382;5.270;2023-04-08T00:48:04;102402.00;;;5.17;100.00
47054;BME280;32811;52.382;5.270;2023-04-08T00:50:31;102397.47;;;5.12;100.00
47054;BME280;32811;52.382;5.270;2023-04-08T00:52:57;102416.41;;;5.15;100.00
47054;BME280;32811;52.382;5.270;2023-04-08T00:55:24;102389.97;;;4.98;100.00
47054;BME280;32811;52.382;5.270;2023-04-08T00:57:51;102382.34;;;4.84;100.00
47054;BME280;32811;52.382;5.270;2023-04-08T01:00:17;102420.09;;;5.04;100.00
47054;BME280;32811;52.382;5.270;2023-04-08T01:02:50;102421.69;;;5.02;100.00
47054;BME280;32811;52.382;5.270;2023-04-08T01:07:59;102422.97;;;4.94;100.00
47054;BME280;32811;52.382;5.270;2023-04-08T01:10:30;102418.34;;;4.87;100.00
47054;BME280;32811;52.382;5.270;2023-04-08T01:13:03;102416.41;;;4.83;100.00
47054;BME280;32811;52.382;5.270;2023-04-08T01:15:32;102409.19;;;4.75;100.00
47054;BME280;32811;52.382;5.270;2023-04-08T01:18:00;102375.28;;;4.47;100.00
47054;BME280;32811;52.382;5.270;2023-04-08T01:20:31;102409.66;;;4.68;100.00
47054;BME280;32811;52.382;5.270;2023-04-08T01:25:32;102414.97;;;4.71;100.00
47054;BME280;32811;52.382;5.270;2023-04-08T01:28:03;102421.19;;;4.76;100.00
47054;BME280;32811;52.382;5.270;2023-04-08T01:30:31;102412.47;;;4.73;100.00
47054;BME280;32811;52.382;5.270;2023-04-08T01:33:00;102416.09;;;4.76;100.00
47054;BME280;32811;52.382;5.270;2023-04-08T01:35:30;102408.06;;;4.70;100.00
47054;BME280;32811;52.382;5.270;2023-04-08T01:37:58;102419.38;;;4.74;100.00
47054;BME280;32811;52.382;5.270;2023-04-08T01:40:25;102384.84;;;4.51;100.00
47054;BME280;32811;52.382;5.270;2023-04-08T01:42:54;102380.81;;;4.54;100.00
47054;BME280;32811;52.382;5.270;2023-04-08T01:45:22;102429.75;;;4.77;100.00
47054;BME280;32811;52.382;5.270;2023-04-08T01:47:50;102401.84;;;4.65;100.00
47054;BME280;32811;52.382;5.270;2023-04-08T01:50:18;102427.91;;;4.74;100.00
47054;BME280;32811;52.382;5.270;2023-04-08T01:52:47;102415.75;;;4.70;100.00
47054;BME280;32811;52.382;5.270;2023-04-08T01:55:15;102433.34;;;4.81;100.00
47054;BME280;32811;52.382;5.270;2023-04-08T01:57:48;102434.00;;;4.76;100.00
47054;BME280;32811;52.382;5.270;2023-04-08T02:00:24;102434.72;;;4.74;100.00
47054;BME280;32811;52.382;5.270;2023-04-08T02:02:52;102434.28;;;4.66;100.00
47054;BME280;32811;52.382;5.270;2023-04-08T02:05:20;102437.41;;;4.61;100.00
47054;BME280;32811;52.382;5.270;2023-04-08T02:07:47;102427.69;;;4.55;100.00
47054;BME280;32811;52.382;5.270;2023-04-08T02:10:14;102431.06;;;4.54;100.00
47054;BME280;32811;52.382;5.270;2023-04-08T02:12:42;102425.63;;;4.48;100.00
47054;BME280;32811;52.382;5.270;2023-04-08T02:15:12;102433.03;;;4.43;100.00
47054;BME280;32811;52.382;5.270;2023-04-08T02:20:20;102437.84;;;4.22;100.00
47054;BME280;32811;52.382;5.270;2023-04-08T02:22:59;102433.81;;;4.11;100.00
47054;BME280;32811;52.382;5.270;2023-04-08T02:25:29;102428.34;;;4.05;100.00
47054;BME280;32811;52.382;5.270;2023-04-08T02:27:59;102433.09;;;3.99;100.00
47054;BME280;32811;52.382;5.270;2023-04-08T02:30:26;102450.63;;;3.92;100.00
47054;BME280;32811;52.382;5.270;2023-04-08T02:32:55;102444.53;;;3.90;100.00
47054;BME280;32811;52.382;5.270;2023-04-08T02:35:23;102448.41;;;3.84;100.00
47054;BME280;32811;52.382;5.270;2023-04-08T02:37:52;102430.34;;;3.66;100.00
47054;BME280;32811;52.382;5.270;2023-04-08T02:42:48;102447.63;;;3.70;100.00
47054;BME280;32811;52.382;5.270;2023-04-08T02:45:15;102462.78;;;3.67;100.00
47054;BME280;32811;52.382;5.270;2023-04-08T02:47:42;102458.00;;;3.58;100.00
47054;BME280;32811;52.382;5.270;2023-04-08T02:50:09;102462.84;;;3.53;100.00
47054;BME280;32811;52.382;5.270;2023-04-08T02:52:36;102455.94;;;3.38;100.00
47054;BME280;32811;52.382;5.270;2023-04-08T02:55:03;102464.59;;;3.40;100.00
47054;BME280;32811;52.382;5.270;2023-04-08T02:57:32;102461.94;;;3.38;100.00
47054;BME280;32811;52.382;5.270;2023-04-08T02:59:58;102450.09;;;3.25;100.00
47054;BME280;32811;52.382;5.270;2023-04-08T03:02:25;102466.50;;;3.29;100.00
47054;BME280;32811;52.382;5.270;2023-04-08T03:04:52;102471.31;;;3.24;100.00
47054;BME280;32811;52.382;5.270;2023-04-08T03:07:18;102472.78;;;3.21;100.00
47054;BME280;32811;52.382;5.270;2023-04-08T03:09:45;102460.94;;;3.08;100.00
47054;BME280;32811;52.382;5.270;2023-04-08T03:12:12;102459.09;;;3.05;100.00
47054;BME280;32811;52.382;5.270;2023-04-08T03:14:38;102478.72;;;3.06;100.00
47054;BME280;32811;52.382;5.270;2023-04-08T03:17:05;102456.31;;;2.87;100.00
47054;BME280;32811;52.382;5.270;2023-04-08T03:19:32;102480.72;;;2.97;100.00
47054;BME280;32811;52.382;5.270;2023-04-08T03:21:58;102452.91;;;2.74;100.00
47054;BME280;32811;52.382;5.270;2023-04-08T03:24:25;102466.13;;;2.81;100.00
47054;BME280;32811;52.382;5.270;2023-04-08T03:26:52;102470.44;;;2.82;100.00
47054;BME280;32811;52.382;5.270;2023-04-08T03:29:18;102476.41;;;2.83;100.00
47054;BME280;32811;52.382;5.270;2023-04-08T03:31:45;102466.25;;;2.69;100.00
47054;BME280;32811;52.382;5.270;2023-04-08T03:34:12;102483.78;;;2.78;100.00
47054;BME280;32811;52.382;5.270;2023-04-08T03:36:39;102465.94;;;2.65;100.00
47054;BME280;32811;52.382;5.270;2023-04-08T03:39:05;102443.91;;;2.52;100.00
47054;BME280;32811;52.382;5.270;2023-04-08T03:41:32;102480.66;;;2.69;100.00
47054;BME280;32811;52.382;5.270;2023-04-08T03:43:58;102461.97;;;2.55;100.00
47054;BME280;32811;52.382;5.270;2023-04-08T03:46:27;102429.03;;;2.32;100.00
47054;BME280;32811;52.382;5.270;2023-04-08T03:48:55;102464.22;;;2.51;100.00
47054;BME280;32811;52.382;5.270;2023-04-08T03:54:08;102445.97;;;2.31;100.00
47054;BME280;32811;52.382;5.270;2023-04-08T03:56:35;102484.09;;;2.43;100.00
47054;BME280;32811;52.382;5.270;2023-04-08T03:59:01;102490.00;;;2.42;100.00
47054;BME280;32811;52.382;5.270;2023-04-08T04:01:28;102492.44;;;2.40;100.00
47054;BME280;32811;52.382;5.270;2023-04-08T04:03:57;102465.09;;;2.24;100.00
47054;BME280;32811;52.382;5.270;2023-04-08T04:06:24;102500.88;;;2.39;100.00
47054;BME280;32811;52.382;5.270;2023-04-08T04:08:55;102489.47;;;2.34;100.00
47054;BME280;32811;52.382;5.270;2023-04-08T04:11:21;102501.16;;;2.31;100.00
47054;BME280;32811;52.382;5.270;2023-04-08T04:13:48;102496.66;;;2.26;100.00
47054;BME280;32811;52.382;5.270;2023-04-08T04:16:15;102504.41;;;2.28;100.00
47054;BME280;32811;52.382;5.270;2023-04-08T04:18:41;102481.94;;;2.09;100.00
47054;BME280;32811;52.382;5.270;2023-04-08T04:21:08;102499.97;;;2.12;100.00
47054;BME280;32811;52.382;5.270;2023-04-08T04:23:35;102474.38;;;1.97;100.00
47054;BME280;32811;52.382;5.270;2023-04-08T04:26:07;102507.00;;;2.16;100.00
47054;BME280;32811;52.382;5.270;2023-04-08T04:28:35;102493.88;;;1.97;100.00
47054;BME280;32811;52.382;5.270;2023-04-08T04:31:01;102504.72;;;2.07;100.00
47054;BME280;32811;52.382;5.270;2023-04-08T04:33:28;102519.53;;;2.00;100.00
47054;BME280;32811;52.382;5.270;2023-04-08T04:35:55;102517.78;;;1.99;100.00
47054;BME280;32811;52.382;5.270;2023-04-08T04:38:22;102488.03;;;1.73;100.00
47054;BME280;32811;52.382;5.270;2023-04-08T04:40:48;102517.81;;;1.87;100.00
47054;BME280;32811;52.382;5.270;2023-04-08T04:43:15;102526.13;;;1.84;100.00
47054;BME280;32811;52.382;5.270;2023-04-08T04:45:42;102530.25;;;1.82;100.00
47054;BME280;32811;52.382;5.270;2023-04-08T04:48:10;102529.81;;;1.76;100.00
47054;BME280;32811;52.382;5.270;2023-04-08T04:50:37;102526.09;;;1.71;100.00
47054;BME280;32811;52.382;5.270;2023-04-08T04:53:03;102538.94;;;1.73;100.00
47054;BME280;32811;52.382;5.270;2023-04-08T04:55:30;102537.16;;;1.72;100.00
47054;BME280;32811;52.382;5.270;2023-04-08T04:57:57;102518.22;;;1.55;100.00
47054;BME280;32811;52.382;5.270;2023-04-08T05:00:24;102515.81;;;1.44;100.00
47054;BME280;32811;52.382;5.270;2023-04-08T05:02:50;102524.53;;;1.48;100.00
47054;BME280;32811;52.382;5.270;2023-04-08T05:05:17;102540.22;;;1.54;100.00
47054;BME280;32811;52.382;5.270;2023-04-08T05:07:44;102546.28;;;1.56;100.00
47054;BME280;32811;52.382;5.270;2023-04-08T05:10:10;102555.13;;;1.61;100.00
47054;BME280;32811;52.382;5.270;2023-04-08T05:12:37;102553.72;;;1.53;100.00
47054;BME280;32811;52.382;5.270;2023-04-08T05:15:04;102567.63;;;1.58;100.00
47054;BME280;32811;52.382;5.270;2023-04-08T05:17:32;102517.53;;;1.32;100.00
47054;BME280;32811;52.382;5.270;2023-04-08T05:19:58;102559.47;;;1.51;100.00
47054;BME280;32811;52.382;5.270;2023-04-08T05:22:25;102563.22;;;1.56;100.00
47054;BME280;32811;52.382;5.270;2023-04-08T05:24:52;102565.19;;;1.60;100.00
47054;BME280;32811;52.382;5.270;2023-04-08T05:27:18;102545.00;;;1.50;100.00
47054;BME280;32811;52.382;5.270;2023-04-08T05:29:47;102558.00;;;1.66;100.00
47054;BME280;32811;52.382;5.270;2023-04-08T05:32:13;102556.69;;;1.59;100.00
47054;BME280;32811;52.382;5.270;2023-04-08T05:34:42;102542.66;;;1.53;100.00
47054;BME280;32811;52.382;5.270;2023-04-08T05:37:09;102572.03;;;1.73;100.00
47054;BME280;32811;52.382;5.270;2023-04-08T05:39:36;102562.28;;;1.67;100.00
47054;BME280;32811;52.382;5.270;2023-04-08T05:42:03;102569.59;;;1.74;100.00
47054;BME280;32811;52.382;5.270;2023-04-08T05:44:29;102577.25;;;1.87;100.00
47054;BME280;32811;52.382;5.270;2023-04-08T05:46:56;102531.03;;;1.81;100.00
47054;BME280;32811;52.382;5.270;2023-04-08T05:49:23;102558.88;;;2.30;100.00
47054;BME280;32811;52.382;5.270;2023-04-08T05:51:50;102570.78;;;2.83;100.00
47054;BME280;32811;52.382;5.270;2023-04-08T05:54:16;102572.31;;;3.21;100.00
47054;BME280;32811;52.382;5.270;2023-04-08T05:56:43;102574.66;;;3.59;100.00
47054;BME280;32811;52.382;5.270;2023-04-08T05:59:11;102524.28;;;3.57;100.00
47054;BME280;32811;52.382;5.270;2023-04-08T06:01:38;102547.25;;;3.85;100.00
47054;BME280;32811;52.382;5.270;2023-04-08T06:04:05;102570.91;;;4.25;100.00
47054;BME280;32811;52.382;5.270;2023-04-08T06:06:32;102559.63;;;4.36;100.00
47054;BME280;32811;52.382;5.270;2023-04-08T06:08:59;102575.19;;;4.71;100.00
47054;BME280;32811;52.382;5.270;2023-04-08T06:11:26;102561.88;;;4.91;100.00
47054;BME280;32811;52.382;5.270;2023-04-08T06:13:52;102533.47;;;4.87;100.00
47054;BME280;32811;52.382;5.270;2023-04-08T06:16:19;102567.72;;;5.36;100.00
47054;BME280;32811;52.382;5.270;2023-04-08T06:18:57;102571.72;;;5.48;100.00
47054;BME280;32811;52.382;5.270;2023-04-08T06:21:31;102570.72;;;5.60;100.00
47054;BME280;32811;52.382;5.270;2023-04-08T06:23:58;102575.19;;;5.81;100.00
47054;BME280;32811;52.382;5.270;2023-04-08T06:26:28;102561.66;;;6.00;100.00
47054;BME280;32811;52.382;5.270;2023-04-08T06:29:01;102575.97;;;6.13;100.00
47054;BME280;32811;52.382;5.270;2023-04-08T06:31:28;102574.38;;;6.15;100.00
47054;BME280;32811;52.382;5.270;2023-04-08T06:33:59;102579.91;;;6.40;100.00
47054;BME280;32811;52.382;5.270;2023-04-08T06:36:27;102591.16;;;6.26;100.00
47054;BME280;32811;52.382;5.270;2023-04-08T06:38:58;102590.38;;;6.45;100.00
47054;BME280;32811;52.382;5.270;2023-04-08T06:41:26;102582.47;;;6.40;100.00
47054;BME280;32811;52.382;5.270;2023-04-08T06:43:57;102576.41;;;6.56;100.00
47054;BME280;32811;52.382;5.270;2023-04-08T06:46:23;102580.53;;;6.53;100.00
47054;BME280;32811;52.382;5.270;2023-04-08T06:48:51;102603.28;;;5.96;100.00
47054;BME280;32811;52.382;5.270;2023-04-08T06:51:18;102590.72;;;6.00;100.00
47054;BME280;32811;52.382;5.270;2023-04-08T06:53:44;102605.53;;;6.06;100.00
47054;BME280;32811;52.382;5.270;2023-04-08T06:56:12;102611.41;;;6.38;100.00
47054;BME280;32811;52.382;5.270;2023-04-08T06:58:38;102606.75;;;6.65;100.00
47054;BME280;32811;52.382;5.270;2023-04-08T07:01:05;102572.75;;;6.17;100.00
47054;BME280;32811;52.382;5.270;2023-04-08T07:03:32;102606.09;;;6.51;100.00
47054;BME280;32811;52.382;5.270;2023-04-08T07:05:58;102620.69;;;6.52;100.00
47054;BME280;32811;52.382;5.270;2023-04-08T07:08:25;102618.81;;;6.50;100.00
47054;BME280;32811;52.382;5.270;2023-04-08T07:10:52;102613.88;;;6.53;100.00
47054;BME280;32811;52.382;5.270;2023-04-08T07:13:19;102627.84;;;6.41;100.00
47054;BME280;32811;52.382;5.270;2023-04-08T07:15:45;102623.38;;;6.37;100.00
47054;BME280;32811;52.382;5.270;2023-04-08T07:18:12;102635.34;;;6.55;100.00
47054;BME280;32811;52.382;5.270;2023-04-08T07:20:39;102624.50;;;6.60;100.00
47054;BME280;32811;52.382;5.270;2023-04-08T07:23:08;102605.91;;;6.82;100.00
47054;BME280;32811;52.382;5.270;2023-04-08T07:25:34;102627.09;;;6.78;100.00
47054;BME280;32811;52.382;5.270;2023-04-08T07:28:01;102613.16;;;6.73;100.00
47054;BME280;32811;52.382;5.270;2023-04-08T07:30:28;102639.78;;;6.75;100.00
47054;BME280;32811;52.382;5.270;2023-04-08T07:32:54;102616.69;;;6.75;100.00
47054;BME280;32811;52.382;5.270;2023-04-08T07:35:26;102636.13;;;6.88;100.00
47054;BME280;32811;52.382;5.270;2023-04-08T07:37:53;102631.34;;;6.96;100.00
47054;BME280;32811;52.382;5.270;2023-04-08T07:40:20;102650.28;;;7.16;100.00
47054;BME280;32811;52.382;5.270;2023-04-08T07:42:47;102614.47;;;7.01;100.00
47054;BME280;32811;52.382;5.270;2023-04-08T07:45:13;102634.03;;;6.81;100.00
47054;BME280;32811;52.382;5.270;2023-04-08T07:47:40;102658.56;;;7.28;100.00
47054;BME280;32811;52.382;5.270;2023-04-08T07:50:07;102656.34;;;7.36;100.00
47054;BME280;32811;52.382;5.270;2023-04-08T07:52:34;102615.72;;;7.09;100.00
47054;BME280;32811;52.382;5.270;2023-04-08T07:55:01;102617.50;;;6.92;100.00
47054;BME280;32811;52.382;5.270;2023-04-08T07:57:28;102611.66;;;7.32;100.00
47054;BME280;32811;52.382;5.270;2023-04-08T07:59:54;102651.28;;;7.55;100.00
47054;BME280;32811;52.382;5.270;2023-04-08T08:02:21;102635.69;;;7.52;100.00
47054;BME280;32811;52.382;5.270;2023-04-08T08:04:48;102657.13;;;7.71;100.00
47054;BME280;32811;52.382;5.270;2023-04-08T08:07:15;102659.88;;;7.95;100.00
47054;BME280;32811;52.382;5.270;2023-04-08T08:09:42;102639.56;;;7.81;100.00
47054;BME280;32811;52.382;5.270;2023-04-08T08:12:08;102672.22;;;8.02;100.00
47054;BME280;32811;52.382;5.270;2023-04-08T08:14:35;102657.66;;;7.83;100.00
47054;BME280;32811;52.382;5.270;2023-04-08T08:17:02;102629.63;;;7.69;100.00
47054;BME280;32811;52.382;5.270;2023-04-08T08:19:29;102647.09;;;7.96;100.00
47054;BME280;32811;52.382;5.270;2023-04-08T08:21:56;102670.44;;;8.20;100.00
47054;BME280;32811;52.382;5.270;2023-04-08T08:24:22;102653.94;;;8.15;100.00
47054;BME280;32811;52.382;5.270;2023-04-08T08:26:49;102666.31;;;8.24;100.00
47054;BME280;32811;52.382;5.270;2023-04-08T08:29:16;102667.31;;;8.27;100.00
47054;BME280;32811;52.382;5.270;2023-04-08T08:31:43;102656.16;;;8.46;100.00
47054;BME280;32811;52.382;5.270;2023-04-08T08:34:09;102669.75;;;8.44;100.00
47054;BME280;32811;52.382;5.270;2023-04-08T08:36:36;102650.00;;;8.23;100.00
47054;BME280;32811;52.382;5.270;2023-04-08T08:39:03;102654.53;;;8.29;100.00
47054;BME280;32811;52.382;5.270;2023-04-08T08:41:33;102666.56;;;8.69;100.00
47054;BME280;32811;52.382;5.270;2023-04-08T08:44:06;102653.28;;;8.81;100.00
47054;BME280;32811;52.382;5.270;2023-04-08T08:46:34;102651.59;;;8.60;100.00
47054;BME280;32811;52.382;5.270;2023-04-08T08:49:01;102667.41;;;8.69;100.00
47054;BME280;32811;52.382;5.270;2023-04-08T08:51:28;102667.97;;;8.83;100.00
47054;BME280;32811;52.382;5.270;2023-04-08T08:53:55;102649.97;;;8.83;100.00
47054;BME280;32811;52.382;5.270;2023-04-08T08:56:22;102683.16;;;8.77;100.00
47054;BME280;32811;52.382;5.270;2023-04-08T08:58:48;102670.06;;;8.92;100.00
47054;BME280;32811;52.382;5.270;2023-04-08T09:01:35;102680.72;;;9.22;100.00
47054;BME280;32811;52.382;5.270;2023-04-08T09:04:09;102668.97;;;9.08;100.00
47054;BME280;32811;52.382;5.270;2023-04-08T09:06:37;102679.03;;;9.23;100.00
47054;BME280;32811;52.382;5.270;2023-04-08T09:09:04;102669.94;;;9.32;100.00
47054;BME280;32811;52.382;5.270;2023-04-08T09:11:40;102665.28;;;9.45;100.00
47054;BME280;32811;52.382;5.270;2023-04-08T09:14:23;102687.00;;;9.29;100.00
47054;BME280;32811;52.382;5.270;2023-04-08T09:16:51;102689.97;;;9.40;100.00
47054;BME280;32811;52.382;5.270;2023-04-08T09:19:18;102687.22;;;9.57;100.00
47054;BME280;32811;52.382;5.270;2023-04-08T09:22:03;102661.75;;;9.65;100.00
47054;BME280;32811;52.382;5.270;2023-04-08T09:24:30;102692.53;;;10.07;100.00
47054;BME280;32811;52.382;5.270;2023-04-08T09:26:57;102696.38;;;10.18;100.00
47054;BME280;32811;52.382;5.270;2023-04-08T09:29:24;102678.25;;;10.17;100.00
47054;BME280;32811;52.382;5.270;2023-04-08T09:32:00;102694.56;;;10.40;100.00
47054;BME280;32811;52.382;5.270;2023-04-08T09:34:28;102702.31;;;10.40;100.00
47054;BME280;32811;52.382;5.270;2023-04-08T09:36:55;102690.75;;;10.06;100.00
47054;BME280;32811;52.382;5.270;2023-04-08T09:39:22;102716.31;;;10.23;100.00
47054;BME280;32811;52.382;5.270;2023-04-08T09:41:50;102665.50;;;10.22;100.00
47054;BME280;32811;52.382;5.270;2023-04-08T09:44:20;102711.59;;;10.59;100.00
47054;BME280;32811;52.382;5.270;2023-04-08T09:52:05;102702.75;;;10.52;100.00
47054;BME280;32811;52.382;5.270;2023-04-08T09:55:02;102704.56;;;10.55;100.00
47054;BME280;32811;52.382;5.270;2023-04-08T09:57:54;102702.66;;;10.75;100.00
47054;BME280;32811;52.382;5.270;2023-04-08T10:00:29;102697.53;;;10.76;100.00
47054;BME280;32811;52.382;5.270;2023-04-08T10:03:01;102704.31;;;10.73;100.00
47054;BME280;32811;52.382;5.270;2023-04-08T10:05:36;102702.34;;;10.66;100.00
47054;BME280;32811;52.382;5.270;2023-04-08T10:08:04;102668.66;;;10.63;100.00
47054;BME280;32811;52.382;5.270;2023-04-08T10:10:33;102669.06;;;10.75;100.00
47054;BME280;32811;52.382;5.270;2023-04-08T10:13:03;102677.53;;;10.96;100.00
47054;BME280;32811;52.382;5.270;2023-04-08T10:15:31;102677.56;;;10.98;100.00
47054;BME280;32811;52.382;5.270;2023-04-08T10:20:41;102685.88;;;11.15;100.00
47054;BME280;32811;52.382;5.270;2023-04-08T10:23:10;102661.44;;;11.05;100.00
47054;BME280;32811;52.382;5.270;2023-04-08T10:25:43;102654.22;;;11.22;100.00
47054;BME280;32811;52.382;5.270;2023-04-08T10:30:57;102672.78;;;11.37;100.00
47054;BME280;32811;52.382;5.270;2023-04-08T10:33:33;102661.75;;;11.14;100.00
47054;BME280;32811;52.382;5.270;2023-04-08T10:36:11;102656.53;;;11.41;100.00
47054;BME280;32811;52.382;5.270;2023-04-08T10:38:41;102655.50;;;11.65;100.00
47054;BME280;32811;52.382;5.270;2023-04-08T10:41:11;102636.78;;;11.43;100.00
47054;BME280;32811;52.382;5.270;2023-04-08T10:43:47;102650.81;;;11.82;100.00
47054;BME280;32811;52.382;5.270;2023-04-08T10:46:14;102655.53;;;11.95;100.00
47054;BME280;32811;52.382;5.270;2023-04-08T10:48:40;102642.41;;;11.59;100.00
47054;BME280;32811;52.382;5.270;2023-04-08T10:51:07;102666.56;;;11.90;100.00
47054;BME280;32811;52.382;5.270;2023-04-08T10:53:35;102671.13;;;11.70;100.00
47054;BME280;32811;52.382;5.270;2023-04-08T10:56:06;102673.84;;;11.74;100.00
47054;BME280;32811;52.382;5.270;2023-04-08T10:58:34;102651.09;;;11.61;100.00
47054;BME280;32811;52.382;5.270;2023-04-08T11:01:06;102647.47;;;11.56;100.00
47054;BME280;32811;52.382;5.270;2023-04-08T11:03:34;102662.28;;;11.33;100.00
47054;BME280;32811;52.382;5.270;2023-04-08T11:06:03;102667.28;;;11.27;100.00
47054;BME280;32811;52.382;5.270;2023-04-08T11:08:31;102679.22;;;11.52;100.00
47054;BME280;32811;52.382;5.270;2023-04-08T11:11:01;102644.78;;;11.24;100.00
47054;BME280;32811;52.382;5.270;2023-04-08T11:13:30;102627.69;;;11.00;100.00
47054;BME280;32811;52.382;5.270;2023-04-08T11:15:58;102678.88;;;11.39;100.00
47054;BME280;32811;52.382;5.270;2023-04-08T11:18:25;102659.56;;;11.28;100.00
47054;BME280;32811;52.382;5.270;2023-04-08T11:20:53;102667.75;;;11.42;100.00
47054;BME280;32811;52.382;5.270;2023-04-08T11:23:20;102677.16;;;11.40;100.00
47054;BME280;32811;52.382;5.270;2023-04-08T11:25:48;102647.00;;;11.40;100.00
47054;BME280;32811;52.382;5.270;2023-04-08T11:28:16;102674.78;;;11.46;100.00
47054;BME280;32811;52.382;5.270;2023-04-08T11:30:43;102658.94;;;11.35;100.00
47054;BME280;32811;52.382;5.270;2023-04-08T11:33:11;102671.34;;;11.47;100.00
47054;BME280;32811;52.382;5.270;2023-04-08T11:35:40;102663.56;;;11.47;100.00
47054;BME280;32811;52.382;5.270;2023-04-08T11:38:08;102653.03;;;11.39;100.00
47054;BME280;32811;52.382;5.270;2023-04-08T11:40:35;102670.13;;;11.36;100.00
47054;BME280;32811;52.382;5.270;2023-04-08T11:43:09;102669.13;;;11.31;100.00
47054;BME280;32811;52.382;5.270;2023-04-08T11:45:40;102648.84;;;11.16;100.00
47054;BME280;32811;52.382;5.270;2023-04-08T11:48:16;102652.31;;;11.16;100.00
47054;BME280;32811;52.382;5.270;2023-04-08T11:50:44;102654.66;;;11.09;100.00
47054;BME280;32811;52.382;5.270;2023-04-08T11:53:21;102646.56;;;10.98;100.00
47054;BME280;32811;52.382;5.270;2023-04-08T11:55:50;102666.84;;;11.13;100.00
47054;BME280;32811;52.382;5.270;2023-04-08T11:58:17;102648.25;;;11.25;100.00
47054;BME280;32811;52.382;5.270;2023-04-08T12:00:44;102659.72;;;11.33;100.00
47054;BME280;32811;52.382;5.270;2023-04-08T12:03:14;102653.84;;;11.38;100.00
47054;BME280;32811;52.382;5.270;2023-04-08T12:05:41;102673.25;;;11.53;100.00
47054;BME280;32811;52.382;5.270;2023-04-08T12:08:08;102684.88;;;11.67;100.00
47054;BME280;32811;52.382;5.270;2023-04-08T12:10:34;102663.09;;;11.59;100.00
47054;BME280;32811;52.382;5.270;2023-04-08T12:13:01;102670.88;;;11.89;100.00
47054;BME280;32811;52.382;5.270;2023-04-08T12:15:27;102673.03;;;11.75;100.00
47054;BME280;32811;52.382;5.270;2023-04-08T12:17:54;102655.56;;;11.38;100.00
47054;BME280;32811;52.382;5.270;2023-04-08T12:20:21;102657.78;;;11.54;100.00
47054;BME280;32811;52.382;5.270;2023-04-08T12:22:47;102657.47;;;11.74;100.00
47054;BME280;32811;52.382;5.270;2023-04-08T12:25:14;102662.03;;;11.82;100.00
47054;BME280;32811;52.382;5.270;2023-04-08T12:27:41;102641.19;;;11.78;100.00
47054;BME280;32811;52.382;5.270;2023-04-08T12:30:09;102665.75;;;12.22;100.00
47054;BME280;32811;52.382;5.270;2023-04-08T12:32:35;102667.16;;;12.43;100.00
47054;BME280;32811;52.382;5.270;2023-04-08T12:35:02;102667.38;;;12.52;100.00
47054;BME280;32811;52.382;5.270;2023-04-08T12:37:29;102670.44;;;12.36;100.00
47054;BME280;32811;52.382;5.270;2023-04-08T12:39:55;102672.47;;;12.16;100.00
47054;BME280;32811;52.382;5.270;2023-04-08T12:42:22;102660.75;;;11.97;100.00
47054;BME280;32811;52.382;5.270;2023-04-08T12:44:48;102660.66;;;11.65;100.00
47054;BME280;32811;52.382;5.270;2023-04-08T12:47:15;102653.88;;;11.40;100.00
47054;BME280;32811;52.382;5.270;2023-04-08T12:49:42;102674.38;;;11.34;100.00
47054;BME280;32811;52.382;5.270;2023-04-08T12:52:15;102651.97;;;11.33;100.00
47054;BME280;32811;52.382;5.270;2023-04-08T12:54:42;102647.03;;;11.13;100.00
47054;BME280;32811;52.382;5.270;2023-04-08T12:57:09;102649.78;;;10.91;100.00
47054;BME280;32811;52.382;5.270;2023-04-08T12:59:36;102682.56;;;10.92;100.00
47054;BME280;32811;52.382;5.270;2023-04-08T13:02:03;102672.81;;;10.85;100.00
47054;BME280;32811;52.382;5.270;2023-04-08T13:04:30;102693.97;;;10.73;100.00
47054;BME280;32811;52.382;5.270;2023-04-08T13:06:56;102690.22;;;10.63;100.00
47054;BME280;32811;52.382;5.270;2023-04-08T13:09:24;102691.03;;;10.62;100.00
47054;BME280;32811;52.382;5.270;2023-04-08T13:11:51;102664.63;;;10.45;100.00
47054;BME280;32811;52.382;5.270;2023-04-08T13:14:18;102678.56;;;10.50;100.00
47054;BME280;32811;52.382;5.270;2023-04-08T13:16:44;102692.94;;;10.68;100.00